Terminal Aerodrome Forecast
Issued by NWS Jackson, MS

Home | Current Version | Previous Version | Text Only | Print | Product List | Glossary On
Versions: 1 2 3 4 5 6 7 8 9 10 11 12 13 14 15 16 17 18 19 20 21 22
000
FTUS44 KJAN 152340
TAFGWO
TAF
KGWO 152340Z 1600/1624 17010KT P6SM SCT250
     FM161400 20010KT P6SM BKN040
     FM161900 19010KT P6SM -TSRA BKN035 BKN050CB=

USA.gov is the U.S. government's official web portal to all federal, state and local government web resources and services.